Alcova, Wyoming
Current Conditions -  °F | °C
As of 10:53 AM on Friday 19 Dec 2014 (Local Time) from KCPR Reporting Station
Clear Clear  
Wind Chill: 16°   Ceiling: Unl
Heat Index: 29°   Visibility: 10mi
Dew Point: 19°   Wind: 20mph
Humidity: 67%   Direction: 220°SW
Pressure: 30.03"   Gusts: NA
Location:  42.55°N, 106.72°W
Report Text: KCPR 191753Z 22017KT 10SM CLR M02/M07 A3003 RMK AO2 PK WND 21027/1656 SLP202 T10171072 11017 21056 58004
Loading
Personal Weather Stations






























Interactive Weather Map New forecast layout! Learn more

10-Day Weather Forecast

Advertisements
Track Severe Weather on mobile